Time;durP1;ratioP1;P1;durP2;ratioP2;P2;SDS_P1;SDS_P2;PMS_P1;PMS_P2;Temp;Humidity;BMP_temperature;BMP_pressure;BME280_temperature;BME280_humidity;BME280_pressure;Samples;Min_cycle;Max_cycle;Signal;HPM_P1;HPM_P2
2023/08/03 00:00:14;;;;;;;4.47;0.82;;;18.60;99.90;;;;;;5032035;28;20579;-80
2023/08/03 00:02:40;;;;;;;2.13;0.85;;;18.70;99.90;;;;;;5031762;28;20571;-79
2023/08/03 00:05:06;;;;;;;4.55;1.02;;;18.70;99.90;;;;;;5031955;28;20045;-80
2023/08/03 00:07:32;;;;;;;1.92;0.82;;;18.60;99.90;;;;;;5031844;28;20026;-78
2023/08/03 00:09:58;;;;;;;1.75;0.88;;;18.60;99.90;;;;;;5031881;28;20045;-79
2023/08/03 00:12:24;;;;;;;9.50;2.28;;;18.60;99.90;;;;;;5031323;28;20140;-79
2023/08/03 00:14:51;;;;;;;8.40;2.72;;;18.50;99.90;;;;;;5030402;28;20045;-77
2023/08/03 00:17:16;;;;;;;1.88;0.98;;;18.60;99.90;;;;;;5031455;28;20833;-78
2023/08/03 00:19:42;;;;;;;7.15;1.10;;;18.50;99.90;;;;;;5030309;28;20049;-78
2023/08/03 00:22:09;;;;;;;7.80;1.35;;;18.50;99.90;;;;;;5031494;28;20041;-78
2023/08/03 00:24:34;;;;;;;7.45;0.93;;;18.50;99.90;;;;;;5031103;28;20418;-79
2023/08/03 00:27:00;;;;;;;6.35;1.25;;;18.40;99.90;;;;;;5031179;28;20037;-79
2023/08/03 00:29:26;;;;;;;4.80;1.58;;;18.40;99.90;;;;;;5030067;28;20040;-77
2023/08/03 00:31:51;;;;;;;3.28;0.88;;;18.30;99.90;;;;;;5031067;28;20060;-79
2023/08/03 00:34:17;;;;;;;2.40;0.95;;;18.30;99.90;;;;;;5031345;28;20517;-80
2023/08/03 00:36:42;;;;;;;7.78;1.80;;;18.30;99.90;;;;;;5030715;28;20030;-80
2023/08/03 00:39:08;;;;;;;4.70;1.27;;;18.30;99.90;;;;;;5031063;28;20029;-78
2023/08/03 00:41:34;;;;;;;2.65;0.93;;;18.30;99.90;;;;;;5031084;28;20049;-80
2023/08/03 00:44:00;;;;;;;4.28;0.70;;;18.30;99.90;;;;;;5031097;28;20073;-79
2023/08/03 00:46:25;;;;;;;6.50;1.23;;;18.30;99.90;;;;;;5031019;28;20033;-80
2023/08/03 00:48:51;;;;;;;11.43;3.20;;;18.20;99.90;;;;;;5030922;28;20493;-78
2023/08/03 00:51:17;;;;;;;5.97;2.05;;;18.20;99.90;;;;;;5030956;28;20032;-79
2023/08/03 00:53:45;;;;;;;8.93;1.17;;;18.20;99.90;;;;;;5031029;28;20041;-79
2023/08/03 00:56:14;;;;;;;2.53;1.08;;;18.20;99.90;;;;;;5029554;28;20742;-78
2023/08/03 00:58:41;;;;;;;2.97;0.90;;;18.10;99.90;;;;;;5030645;28;20021;-78
2023/08/03 01:01:06;;;;;;;3.33;0.95;;;18.20;99.90;;;;;;5030615;28;20036;-78
2023/08/03 01:03:32;;;;;;;2.63;0.90;;;18.10;99.90;;;;;;5030921;28;20116;-78
2023/08/03 01:05:58;;;;;;;2.92;0.65;;;18.10;99.90;;;;;;5030449;28;20030;-79
2023/08/03 01:08:25;;;;;;;5.03;0.80;;;18.10;99.90;;;;;;5030590;28;20037;-79
2023/08/03 01:10:54;;;;;;;3.67;1.20;;;18.10;99.90;;;;;;5030528;28;20021;-80
2023/08/03 01:13:21;;;;;;;3.65;0.95;;;18.10;99.90;;;;;;5029072;28;20148;-78
2023/08/03 01:15:46;;;;;;;2.88;0.88;;;18.10;99.90;;;;;;5030249;28;20133;-78
2023/08/03 01:18:12;;;;;;;1.83;0.65;;;18.10;99.90;;;;;;5030393;28;20480;-78
2023/08/03 01:20:40;;;;;;;11.27;1.08;;;18.10;99.90;;;;;;5030336;28;20545;-78
2023/08/03 01:23:06;;;;;;;4.80;0.90;;;18.10;99.90;;;;;;5030271;28;20029;-78
2023/08/03 01:25:33;;;;;;;3.30;1.20;;;18.10;99.90;;;;;;5028842;28;20108;-77
2023/08/03 01:27:59;;;;;;;2.17;0.70;;;18.10;99.90;;;;;;5030103;28;20033;-80
2023/08/03 01:30:24;;;;;;;4.75;1.55;;;18.10;99.90;;;;;;5030360;28;20022;-81
2023/08/03 01:32:50;;;;;;;5.00;1.38;;;18.10;99.90;;;;;;5028880;28;20398;-78
2023/08/03 01:35:17;;;;;;;1.90;0.80;;;18.10;99.90;;;;;;5030016;28;20158;-78
2023/08/03 01:37:42;;;;;;;1.83;0.80;;;18.10;99.90;;;;;;5030177;28;20029;-79
2023/08/03 01:40:10;;;;;;;3.17;0.80;;;18.10;99.90;;;;;;5028666;28;20033;-78
2023/08/03 01:42:36;;;;;;;3.22;0.98;;;18.10;99.90;;;;;;5030150;28;20029;-78
2023/08/03 01:45:03;;;;;;;1.70;0.75;;;18.10;99.90;;;;;;5029795;28;20036;-78
2023/08/03 01:47:29;;;;;;;2.72;0.90;;;18.10;99.90;;;;;;5028809;28;20034;-79
2023/08/03 01:49:54;;;;;;;3.47;1.10;;;18.10;99.90;;;;;;5029682;28;20046;-79
2023/08/03 01:52:20;;;;;;;3.15;0.85;;;18.00;99.90;;;;;;5028688;28;20033;-78
2023/08/03 01:54:45;;;;;;;3.00;0.82;;;18.00;99.90;;;;;;5029655;28;20056;-80
2023/08/03 01:57:11;;;;;;;1.90;0.82;;;17.90;99.90;;;;;;5029703;28;20100;-79
2023/08/03 01:59:37;;;;;;;2.72;1.00;;;18.00;99.90;;;;;;5029764;28;20784;-78
2023/08/03 02:02:02;;;;;;;2.50;1.23;;;18.00;99.90;;;;;;5028045;28;20500;-78
2023/08/03 02:04:28;;;;;;;5.82;1.80;;;17.90;99.90;;;;;;5029566;28;20033;-79
2023/08/03 02:06:56;;;;;;;5.07;1.73;;;17.90;99.90;;;;;;5029332;28;20025;-78
2023/08/03 02:09:22;;;;;;;2.53;1.23;;;17.90;99.90;;;;;;5029398;28;20407;-77
2023/08/03 02:11:48;;;;;;;4.35;1.10;;;17.80;99.90;;;;;;5029166;28;20116;-79
2023/08/03 02:14:14;;;;;;;1.98;1.20;;;17.90;99.90;;;;;;5027955;28;20047;-78
2023/08/03 02:16:39;;;;;;;4.32;0.93;;;17.90;99.90;;;;;;5029392;28;20053;-81
2023/08/03 02:19:05;;;;;;;3.08;1.10;;;18.00;99.90;;;;;;5029236;28;20036;-75
2023/08/03 02:21:30;;;;;;;2.38;1.00;;;18.00;99.90;;;;;;5029363;28;20034;-77
2023/08/03 02:23:56;;;;;;;4.28;0.95;;;18.00;99.90;;;;;;5027888;28;20037;-79
2023/08/03 02:26:22;;;;;;;1.58;0.88;;;18.00;99.90;;;;;;5029155;28;20044;-79
2023/08/03 02:28:47;;;;;;;2.15;0.90;;;18.00;99.90;;;;;;5029004;28;20045;-80
2023/08/03 02:31:13;;;;;;;2.72;1.15;;;17.90;99.90;;;;;;5027574;28;20029;-77
2023/08/03 02:33:39;;;;;;;3.75;0.90;;;17.90;99.90;;;;;;5027831;28;20028;-80
2023/08/03 02:36:04;;;;;;;3.38;1.23;;;18.00;99.90;;;;;;5030165;28;20025;-78
2023/08/03 02:38:30;;;;;;;6.93;1.45;;;18.00;99.90;;;;;;5028906;28;20030;-80
2023/08/03 02:40:57;;;;;;;5.00;1.48;;;18.00;99.90;;;;;;5028988;28;20084;-79
2023/08/03 02:43:24;;;;;;;7.93;1.40;;;18.00;99.90;;;;;;5028817;28;20034;-80
2023/08/03 02:45:50;;;;;;;5.50;1.10;;;17.90;99.90;;;;;;5027611;28;20104;-80
2023/08/03 02:48:15;;;;;;;2.40;1.02;;;17.90;99.90;;;;;;5028794;28;20470;-79
2023/08/03 02:50:41;;;;;;;3.75;1.05;;;17.80;99.90;;;;;;5028723;28;20029;-80
2023/08/03 02:53:07;;;;;;;4.20;1.33;;;17.80;99.90;;;;;;5028470;28;20120;-79
2023/08/03 02:55:32;;;;;;;4.13;1.00;;;17.80;99.90;;;;;;5028658;28;20104;-80
2023/08/03 02:57:58;;;;;;;7.32;1.38;;;17.70;99.90;;;;;;5027278;28;20532;-79
2023/08/03 03:00:23;;;;;;;5.22;1.20;;;17.70;99.90;;;;;;5027395;28;20041;-78
2023/08/03 03:02:49;;;;;;;2.60;1.20;;;17.80;99.90;;;;;;5028607;28;20037;-80
2023/08/03 03:05:15;;;;;;;3.42;0.93;;;17.70;99.90;;;;;;5028552;28;20040;-80
2023/08/03 03:07:40;;;;;;;2.15;0.93;;;17.70;99.90;;;;;;5028416;28;20040;-79
2023/08/03 03:10:06;;;;;;;2.47;1.17;;;17.70;99.90;;;;;;5028613;28;20025;-77
2023/08/03 03:12:32;;;;;;;4.25;1.38;;;17.70;99.90;;;;;;5027958;28;20434;-80
2023/08/03 03:14:58;;;;;;;3.40;1.83;;;17.70;99.90;;;;;;5028423;28;20379;-80
2023/08/03 03:17:23;;;;;;;1.83;0.98;;;17.70;99.90;;;;;;5028546;28;20486;-82
2023/08/03 03:19:49;;;;;;;2.33;0.95;;;17.70;99.90;;;;;;5028558;28;20056;-81
2023/08/03 03:22:14;;;;;;;2.88;1.25;;;17.70;99.90;;;;;;5028537;28;20026;-78
2023/08/03 03:24:40;;;;;;;4.80;1.40;;;17.80;99.90;;;;;;5028225;28;20029;-78
2023/08/03 03:27:06;;;;;;;3.72;1.10;;;17.80;99.90;;;;;;5028003;28;20030;-79
2023/08/03 03:29:32;;;;;;;4.72;1.20;;;17.80;99.90;;;;;;5028280;28;20107;-78
2023/08/03 03:31:57;;;;;;;3.45;1.13;;;17.80;99.90;;;;;;5028469;28;20489;-78
2023/08/03 03:34:23;;;;;;;3.90;1.40;;;17.80;99.90;;;;;;5028332;28;20409;-78
2023/08/03 03:36:50;;;;;;;4.93;1.50;;;17.80;99.90;;;;;;5033037;28;20563;-79
2023/08/03 03:39:15;;;;;;;8.30;2.42;;;17.80;99.90;;;;;;5032914;28;20079;-79
2023/08/03 03:41:41;;;;;;;3.45;1.35;;;17.80;99.90;;;;;;5038130;28;20014;-79
2023/08/03 03:44:07;;;;;;;2.67;1.25;;;17.80;99.90;;;;;;5046673;28;20041;-78
2023/08/03 03:46:32;;;;;;;5.47;1.48;;;17.80;99.90;;;;;;5048045;28;20452;-78
2023/08/03 03:48:58;;;;;;;2.67;1.50;;;17.80;99.90;;;;;;5048064;28;20033;-78
2023/08/03 03:51:24;;;;;;;3.20;1.23;;;17.90;99.90;;;;;;5047989;28;20025;-79
2023/08/03 03:53:49;;;;;;;2.30;1.30;;;18.00;99.90;;;;;;5046742;28;20029;-78
2023/08/03 03:56:15;;;;;;;5.90;1.38;;;18.00;99.90;;;;;;5046724;28;20083;-77
2023/08/03 03:58:41;;;;;;;3.92;1.27;;;18.10;99.90;;;;;;5048099;28;20021;-78
2023/08/03 04:01:06;;;;;;;3.58;1.73;;;18.20;99.90;;;;;;5047932;28;20029;-79
2023/08/03 04:03:32;;;;;;;1.60;0.80;;;18.40;99.90;;;;;;5048068;28;20075;-77
2023/08/03 04:05:58;;;;;;;1.90;1.05;;;18.50;99.90;;;;;;5047752;28;20083;-79
2023/08/03 04:08:23;;;;;;;5.75;1.50;;;18.60;99.90;;;;;;5047884;28;20035;-78
2023/08/03 04:10:49;;;;;;;3.08;1.73;;;18.70;99.90;;;;;;5048840;28;20440;-76
2023/08/03 04:13:15;;;;;;;3.20;1.25;;;18.90;99.90;;;;;;5051320;28;20048;-79
2023/08/03 04:15:41;;;;;;;2.13;1.25;;;19.00;99.90;;;;;;5051466;28;20021;-79
2023/08/03 04:18:06;;;;;;;4.50;2.03;;;19.30;99.90;;;;;;5051537;28;20394;-79
2023/08/03 04:20:32;;;;;;;6.25;1.35;;;19.40;99.90;;;;;;5050085;28;20048;-78
2023/08/03 04:22:58;;;;;;;7.13;1.27;;;19.60;99.90;;;;;;5051411;28;20039;-78
2023/08/03 04:25:23;;;;;;;9.98;1.67;;;19.70;99.90;;;;;;5051397;28;20389;-78
2023/08/03 04:27:49;;;;;;;2.33;1.48;;;19.80;99.90;;;;;;5043538;28;20448;-78
2023/08/03 04:30:14;;;;;;;4.55;1.17;;;19.90;99.90;;;;;;5051487;28;20501;-79
2023/08/03 04:32:41;;;;;;;4.47;1.40;;;20.00;99.90;;;;;;5050003;28;20032;-79
2023/08/03 04:35:07;;;;;;;6.00;1.48;;;20.00;99.90;;;;;;5051111;28;20071;-79
2023/08/03 04:37:33;;;;;;;5.95;1.00;;;20.00;99.90;;;;;;5051137;28;20104;-78
2023/08/03 04:39:58;;;;;;;9.35;1.25;;;20.10;99.90;;;;;;5048608;28;20120;-79
2023/08/03 04:42:24;;;;;;;3.75;1.23;;;20.10;99.90;;;;;;5039770;28;20029;-78
2023/08/03 04:44:50;;;;;;;8.82;1.50;;;20.10;99.90;;;;;;5049807;28;20090;-77
2023/08/03 04:47:16;;;;;;;10.43;1.15;;;20.30;99.90;;;;;;5050850;28;20533;-79
2023/08/03 04:49:41;;;;;;;8.30;1.00;;;20.40;99.90;;;;;;5050869;28;20033;-77
2023/08/03 04:52:07;;;;;;;2.83;1.20;;;20.50;99.90;;;;;;5051197;28;20035;-76
2023/08/03 04:54:33;;;;;;;2.90;1.35;;;20.70;99.90;;;;;;5049405;28;20032;-75
2023/08/03 04:56:59;;;;;;;9.13;1.35;;;20.90;99.90;;;;;;5050823;28;20117;-76
2023/08/03 04:59:24;;;;;;;7.07;1.30;;;21.00;99.90;;;;;;5044192;28;20022;-76
2023/08/03 05:01:50;;;;;;;7.07;1.33;;;21.10;99.90;;;;;;5039142;28;20469;-77
2023/08/03 05:04:16;;;;;;;4.80;1.55;;;21.20;99.90;;;;;;5042311;28;20028;-76
2023/08/03 05:06:41;;;;;;;4.90;1.70;;;21.20;99.90;;;;;;5050476;28;20041;-75
2023/08/03 05:09:07;;;;;;;5.78;1.58;;;21.30;99.90;;;;;;5041264;28;20045;-76
2023/08/03 05:11:33;;;;;;;4.50;1.63;;;21.30;99.90;;;;;;5039977;28;20029;-76
2023/08/03 05:13:58;;;;;;;8.40;1.50;;;21.20;99.90;;;;;;5037845;28;20037;-77
2023/08/03 05:16:24;;;;;;;10.20;1.83;;;21.20;99.90;;;;;;5040785;28;20032;-77
2023/08/03 05:18:51;;;;;;;9.68;2.78;;;21.40;99.90;;;;;;5039549;28;20033;-77
2023/08/03 05:21:17;;;;;;;7.50;2.10;;;21.50;99.90;;;;;;5040936;28;20018;-78
2023/08/03 05:23:43;;;;;;;4.25;2.03;;;21.60;99.90;;;;;;5050141;28;20477;-79
2023/08/03 05:26:09;;;;;;;3.85;1.83;;;21.80;99.90;;;;;;5050125;28;20048;-79
2023/08/03 05:28:34;;;;;;;5.10;1.40;;;21.70;99.90;;;;;;5050268;28;20386;-78
2023/08/03 05:31:00;;;;;;;3.78;0.88;;;21.70;99.90;;;;;;5043688;28;20033;-78
2023/08/03 05:33:28;;;;;;;10.32;1.20;;;21.80;99.90;;;;;;5033709;28;20038;-79
2023/08/03 05:35:54;;;;;;;3.10;1.10;;;21.80;99.90;;;;;;5030067;28;20094;-79
2023/08/03 05:38:20;;;;;;;4.75;1.70;;;21.80;99.90;;;;;;5030264;28;20771;-78
2023/08/03 05:40:45;;;;;;;7.38;1.40;;;21.90;99.90;;;;;;5029934;28;20038;-78
2023/08/03 05:43:13;;;;;;;7.95;1.65;;;22.00;99.90;;;;;;5029815;28;20087;-79
2023/08/03 05:45:44;;;;;;;5.68;1.58;;;22.10;99.90;;;;;;5029940;28;20048;-77
2023/08/03 05:48:18;;;;;;;5.95;1.52;;;22.30;99.90;;;;;;5029642;28;20040;-80
2023/08/03 05:50:49;;;;;;;2.42;1.20;;;22.50;99.90;;;;;;5029777;28;20072;-77
2023/08/03 05:53:15;;;;;;;2.72;1.38;;;22.90;99.90;;;;;;5029690;28;20029;-78
2023/08/03 05:55:42;;;;;;;3.65;1.55;;;23.20;99.90;;;;;;5029682;28;20017;-76
2023/08/03 05:58:12;;;;;;;3.45;1.50;;;23.50;99.90;;;;;;5029731;28;20021;-77
2023/08/03 06:00:40;;;;;;;4.20;1.75;;;23.80;99.90;;;;;;5029756;28;20040;-78
2023/08/03 06:03:13;;;;;;;4.45;1.83;;;23.90;99.00;;;;;;5029548;28;20030;-77
2023/08/03 06:05:43;;;;;;;4.47;1.88;;;24.00;98.40;;;;;;5027417;28;20037;-77
2023/08/03 06:08:21;;;;;;;4.95;1.52;;;23.80;98.30;;;;;;5027261;28;20557;-77
2023/08/03 06:10:54;;;;;;;5.25;1.50;;;24.10;97.50;;;;;;5026887;28;20025;-76
2023/08/03 06:13:28;;;;;;;3.17;1.23;;;24.80;96.20;;;;;;5027233;28;20064;-77
2023/08/03 06:15:54;;;;;;;6.40;1.50;;;25.60;93.10;;;;;;5027356;28;20030;-77
2023/08/03 06:18:21;;;;;;;3.75;1.63;;;25.70;90.70;;;;;;5027347;28;20095;-79
2023/08/03 06:20:50;;;;;;;2.78;1.30;;;25.60;88.90;;;;;;5026841;28;20407;-78
2023/08/03 06:23:18;;;;;;;8.32;1.90;;;25.70;88.30;;;;;;5028959;28;20033;-77
2023/08/03 06:25:46;;;;;;;7.90;1.70;;;25.30;89.10;;;;;;5029156;28;20029;-78
2023/08/03 06:28:15;;;;;;;5.82;1.73;;;25.10;90.20;;;;;;5028987;28;20033;-79
2023/08/03 06:30:41;;;;;;;6.57;1.75;;;24.90;90.40;;;;;;5028934;28;20057;-76
2023/08/03 06:33:11;;;;;;;3.92;1.40;;;24.60;91.60;;;;;;5028609;28;20065;-78
2023/08/03 06:35:38;;;;;;;5.95;1.60;;;24.60;92.30;;;;;;5028953;28;20071;-78
2023/08/03 06:38:05;;;;;;;4.20;1.52;;;24.50;92.90;;;;;;5028942;28;20123;-77
2023/08/03 06:40:32;;;;;;;8.45;1.67;;;24.30;93.50;;;;;;5028828;28;20021;-77
2023/08/03 06:42:59;;;;;;;6.93;1.60;;;24.50;93.70;;;;;;5028854;28;20041;-77
2023/08/03 06:45:25;;;;;;;4.10;1.63;;;24.50;93.40;;;;;;5028839;28;20036;-78
2023/08/03 06:47:52;;;;;;;6.28;1.58;;;25.20;92.40;;;;;;5028560;28;20410;-78
2023/08/03 06:50:17;;;;;;;6.00;1.42;;;26.40;88.70;;;;;;5028636;28;20417;-77
2023/08/03 06:52:43;;;;;;;4.72;1.40;;;27.60;81.00;;;;;;5028590;28;20453;-78
2023/08/03 06:55:09;;;;;;;9.30;1.92;;;28.30;73.70;;;;;;5028520;28;20112;-78
2023/08/03 06:57:34;;;;;;;4.65;1.95;;;29.20;68.40;;;;;;5028589;28;20026;-78
2023/08/03 07:00:00;;;;;;;9.15;2.05;;;29.60;64.40;;;;;;5028387;28;20494;-79
2023/08/03 07:02:26;;;;;;;6.38;1.85;;;29.60;60.80;;;;;;5028487;28;20026;-78
2023/08/03 07:04:52;;;;;;;4.45;1.88;;;29.90;59.10;;;;;;5028700;28;20356;-79
2023/08/03 07:07:18;;;;;;;3.05;1.63;;;30.40;56.40;;;;;;5028349;28;20041;-78
2023/08/03 07:09:49;;;;;;;4.50;1.63;;;30.80;55.20;;;;;;5028566;28;20021;-77
2023/08/03 07:12:15;;;;;;;4.88;2.10;;;31.40;52.60;;;;;;5028517;28;20497;-78
2023/08/03 07:14:41;;;;;;;4.00;1.73;;;32.00;50.80;;;;;;5028396;28;20497;-78
2023/08/03 07:17:07;;;;;;;6.28;2.35;;;32.40;48.70;;;;;;5028628;28;20083;-77
2023/08/03 07:19:33;;;;;;;13.00;2.28;;;32.70;45.70;;;;;;5028367;28;20482;-78
2023/08/03 07:21:59;;;;;;;3.13;1.67;;;33.00;45.10;;;;;;5028294;28;20099;-78
2023/08/03 07:24:28;;;;;;;5.75;1.60;;;33.40;44.10;;;;;;5028200;28;20022;-78
2023/08/03 07:26:54;;;;;;;5.18;2.10;;;33.70;43.40;;;;;;5026870;28;20037;-78
2023/08/03 07:29:20;;;;;;;4.63;1.95;;;33.90;42.10;;;;;;5028258;28;20610;-77
2023/08/03 07:31:48;;;;;;;6.40;1.90;;;34.30;40.80;;;;;;5028298;28;20026;-79
2023/08/03 07:34:14;;;;;;;4.57;1.88;;;34.40;39.60;;;;;;5028296;28;20025;-78
2023/08/03 07:36:40;;;;;;;6.28;2.30;;;34.00;39.40;;;;;;5026308;28;20080;-79
2023/08/03 07:39:05;;;;;;;6.18;2.47;;;34.20;39.20;;;;;;5027858;28;20103;-79
2023/08/03 07:41:31;;;;;;;9.85;2.40;;;34.10;39.60;;;;;;5031771;28;20029;-79
2023/08/03 07:43:57;;;;;;;4.85;2.28;;;34.20;39.20;;;;;;5042887;28;20037;-79
2023/08/03 07:46:22;;;;;;;8.70;1.83;;;34.30;38.40;;;;;;5029999;28;20071;-79
2023/08/03 07:48:48;;;;;;;6.28;2.20;;;34.00;38.90;;;;;;5031541;28;20045;-78
2023/08/03 07:51:15;;;;;;;3.63;2.22;;;34.20;39.50;;;;;;5031976;28;20048;-77
2023/08/03 07:53:41;;;;;;;8.25;1.80;;;34.40;39.00;;;;;;5031926;28;20132;-78
2023/08/03 07:56:17;;;;;;;4.72;2.22;;;34.60;38.40;;;;;;5031870;28;20113;-79
2023/08/03 07:58:44;;;;;;;10.13;2.40;;;35.10;37.50;;;;;;5030476;28;20404;-79
2023/08/03 08:01:10;;;;;;;7.40;2.15;;;35.10;37.00;;;;;;5030912;28;20061;-77
2023/08/03 08:03:37;;;;;;;3.67;2.10;;;35.10;37.20;;;;;;5031317;28;20080;-79
2023/08/03 08:06:05;;;;;;;7.18;2.17;;;35.20;36.00;;;;;;5031556;28;20037;-79
2023/08/03 08:08:30;;;;;;;3.63;1.80;;;35.30;36.50;;;;;;5031542;28;20120;-79
2023/08/03 08:10:56;;;;;;;7.32;2.10;;;35.40;35.70;;;;;;5031624;28;20195;-77
2023/08/03 08:13:21;;;;;;;4.68;1.85;;;35.50;36.30;;;;;;5031497;28;20049;-79
2023/08/03 08:15:47;;;;;;;5.93;2.47;;;35.50;35.90;;;;;;5031413;28;20061;-79
2023/08/03 08:18:13;;;;;;;4.32;2.17;;;35.80;36.10;;;;;;5031596;28;20539;-78
2023/08/03 08:20:39;;;;;;;7.57;2.15;;;36.00;35.30;;;;;;5031945;28;20029;-78
2023/08/03 08:23:05;;;;;;;4.55;2.45;;;36.10;34.50;;;;;;5031506;28;20116;-79
2023/08/03 08:25:35;;;;;;;5.63;1.83;;;35.90;34.50;;;;;;5030141;28;20124;-79
2023/08/03 08:28:01;;;;;;;9.27;2.55;;;36.20;34.90;;;;;;5031330;28;20040;-79
2023/08/03 08:30:27;;;;;;;4.20;2.33;;;36.00;33.80;;;;;;5031272;28;20033;-79
2023/08/03 08:32:52;;;;;;;4.55;2.03;;;35.80;35.40;;;;;;5031475;28;20029;-78
2023/08/03 08:35:18;;;;;;;5.72;2.42;;;36.20;34.30;;;;;;5029983;28;20048;-79
2023/08/03 08:37:44;;;;;;;7.65;2.22;;;35.50;34.90;;;;;;5031202;28;20033;-79
2023/08/03 08:40:11;;;;;;;7.40;2.30;;;34.90;35.70;;;;;;5031084;28;20052;-78
2023/08/03 08:42:38;;;;;;;5.90;2.22;;;34.90;37.10;;;;;;5031107;28;20021;-79
2023/08/03 08:45:08;;;;;;;8.07;2.10;;;35.20;37.20;;;;;;5031008;28;20026;-78
2023/08/03 08:47:33;;;;;;;4.95;2.58;;;35.30;36.10;;;;;;5030875;28;20025;-78
2023/08/03 08:49:59;;;;;;;5.10;2.67;;;35.40;35.50;;;;;;5029503;28;20265;-78
2023/08/03 08:52:28;;;;;;;5.70;2.30;;;35.50;36.10;;;;;;5029617;28;20030;-79
2023/08/03 08:55:15;;;;;;;6.78;2.13;;;35.50;35.20;;;;;;5030976;28;20048;-77
2023/08/03 08:57:41;;;;;;;6.03;2.45;;;34.90;36.00;;;;;;5029245;28;20041;-79
2023/08/03 09:00:07;;;;;;;6.25;2.22;;;34.50;37.10;;;;;;5030782;28;20022;-78
2023/08/03 09:02:35;;;;;;;5.25;2.20;;;34.10;37.80;;;;;;5030848;28;20040;-78
2023/08/03 09:05:10;;;;;;;5.90;2.50;;;33.70;37.50;;;;;;5030700;28;20017;-78
2023/08/03 09:07:36;;;;;;;7.50;2.40;;;33.30;39.30;;;;;;5030516;28;20033;-79
2023/08/03 09:10:02;;;;;;;5.82;2.47;;;33.50;40.20;;;;;;5029075;28;20044;-78
2023/08/03 09:12:28;;;;;;;3.13;2.20;;;33.10;39.90;;;;;;5030459;28;20437;-77
2023/08/03 09:15:00;;;;;;;5.53;2.22;;;32.30;41.30;;;;;;5029661;28;20587;-79
2023/08/03 09:17:27;;;;;;;13.77;2.25;;;32.10;43.20;;;;;;5029197;28;21066;-77
2023/08/03 09:19:54;;;;;;;4.22;2.45;;;32.80;43.40;;;;;;5030432;28;20033;-78
2023/08/03 09:22:22;;;;;;;6.70;2.42;;;33.10;41.70;;;;;;5030422;28;20029;-78
2023/08/03 09:25:17;;;;;;;6.82;2.28;;;33.40;41.30;;;;;;5030219;28;20509;-77
2023/08/03 09:27:50;;;;;;;9.55;2.50;;;33.90;40.40;;;;;;5021239;28;20056;-78
2023/08/03 09:30:17;;;;;;;4.55;2.10;;;34.10;40.30;;;;;;5028976;28;20034;-79
2023/08/03 09:32:43;;;;;;;4.95;2.03;;;33.90;39.50;;;;;;5030086;28;20092;-78
2023/08/03 09:35:22;;;;;;;5.93;2.15;;;33.40;40.80;;;;;;5030048;28;20497;-78
2023/08/03 09:37:50;;;;;;;7.10;2.45;;;32.90;42.20;;;;;;5030014;28;20487;-78
2023/08/03 09:40:17;;;;;;;7.53;2.88;;;32.70;42.80;;;;;;5029971;28;20037;-78
2023/08/03 09:42:44;;;;;;;6.05;2.50;;;32.30;43.40;;;;;;5029926;28;20017;-78
2023/08/03 09:45:11;;;;;;;10.57;2.20;;;32.10;44.90;;;;;;5029889;28;20037;-78
2023/08/03 09:47:38;;;;;;;4.97;2.42;;;32.80;43.80;;;;;;5029697;28;20071;-77
2023/08/03 09:50:04;;;;;;;12.45;2.55;;;33.50;42.30;;;;;;5029856;28;20084;-78
2023/08/03 09:52:31;;;;;;;5.45;2.42;;;33.70;41.40;;;;;;5029594;28;20029;-76
2023/08/03 09:55:12;;;;;;;6.93;2.53;;;33.90;41.10;;;;;;5029961;28;20040;-76
2023/08/03 09:57:43;;;;;;;10.15;2.58;;;34.50;40.40;;;;;;5029699;28;20061;-77
2023/08/03 10:00:11;;;;;;;9.50;2.30;;;35.20;39.70;;;;;;5029582;28;20113;-77
2023/08/03 10:02:47;;;;;;;10.75;2.50;;;35.70;38.30;;;;;;5028222;28;20060;-77
2023/08/03 10:05:16;;;;;;;;;;;36.10;36.90;;;;;;5030049;28;20083;-77
2023/08/03 10:08:06;;;;;;;9.98;2.50;;;35.60;36.80;;;;;;5029189;28;19920;-76
2023/08/03 10:10:38;;;;;;;8.50;2.83;;;35.00;37.50;;;;;;5028720;28;20114;-77
2023/08/03 10:13:07;;;;;;;5.95;2.63;;;34.50;39.00;;;;;;5029137;28;20049;-75
2023/08/03 10:15:33;;;;;;;7.75;2.50;;;34.40;39.40;;;;;;5029202;28;20045;-76
2023/08/03 10:17:59;;;;;;;7.85;3.22;;;33.90;39.80;;;;;;5028983;28;20080;-77
2023/08/03 10:20:26;;;;;;;5.93;3.47;;;33.60;40.90;;;;;;5028715;28;20423;-76
2023/08/03 10:23:11;;;;;;;6.40;2.72;;;33.40;41.70;;;;;;5028931;28;20025;-75
2023/08/03 10:25:53;;;;;;;6.20;2.70;;;33.00;43.20;;;;;;5027674;28;20383;-76
2023/08/03 10:28:26;;;;;;;8.82;3.25;;;32.80;42.90;;;;;;5028768;28;20146;-77
2023/08/03 10:31:15;;;;;;;6.85;2.83;;;32.60;42.90;;;;;;5028983;28;20036;-75
2023/08/03 10:33:47;;;;;;;7.43;2.97;;;32.50;44.50;;;;;;5027573;28;20109;-76
2023/08/03 10:36:28;;;;;;;11.88;2.65;;;32.50;44.10;;;;;;5028922;28;20029;-77
2023/08/03 10:38:54;;;;;;;4.38;2.70;;;32.50;43.40;;;;;;5028988;28;20040;-77
2023/08/03 10:41:21;;;;;;;5.40;3.05;;;32.40;42.60;;;;;;5028888;28;20029;-77
2023/08/03 10:44:05;;;;;;;6.65;2.70;;;32.00;43.60;;;;;;5028820;28;20525;-78
2023/08/03 10:46:37;;;;;;;10.60;2.85;;;31.60;45.40;;;;;;5028868;28;20830;-78
2023/08/03 10:49:23;;;;;;;4.40;2.80;;;31.30;45.40;;;;;;5028903;28;20144;-75
2023/08/03 10:51:49;;;;;;;6.25;3.30;;;31.00;46.00;;;;;;5021506;28;20049;-75
2023/08/03 10:54:17;;;;;;;8.23;2.95;;;31.00;46.70;;;;;;5028560;28;20139;-77
2023/08/03 10:57:06;;;;;;;8.60;3.53;;;31.00;47.20;;;;;;5027673;28;20032;-76
2023/08/03 10:59:42;;;;;;;4.40;3.20;;;30.80;47.00;;;;;;5029156;28;20049;-77
2023/08/03 11:02:21;;;;;;;4.65;2.90;;;30.70;48.30;;;;;;5028617;28;20036;-77
2023/08/03 11:04:51;;;;;;;5.80;3.08;;;30.80;47.70;;;;;;5028567;28;20539;-76
2023/08/03 11:07:21;;;;;;;5.63;2.90;;;30.80;47.50;;;;;;5028448;28;20562;-76
2023/08/03 11:09:48;;;;;;;6.68;3.33;;;30.90;47.50;;;;;;5028855;28;20037;-76
2023/08/03 11:12:16;;;;;;;5.40;3.15;;;30.90;47.90;;;;;;5028203;28;20417;-75
2023/08/03 11:14:47;;;;;;;7.32;3.25;;;30.90;48.40;;;;;;5028277;28;20025;-77
2023/08/03 11:17:14;;;;;;;4.15;2.65;;;31.00;47.80;;;;;;5026968;28;20022;-76
2023/08/03 11:19:40;;;;;;;6.63;2.40;;;30.90;47.40;;;;;;5029577;28;20028;-78
2023/08/03 11:22:08;;;;;;;9.75;3.00;;;31.10;47.30;;;;;;5034903;28;20029;-76
2023/08/03 11:24:34;;;;;;;4.30;2.50;;;31.10;47.00;;;;;;5035108;28;20025;-78
2023/08/03 11:27:01;;;;;;;7.00;3.10;;;31.00;46.80;;;;;;5035013;28;20040;-77
2023/08/03 11:29:27;;;;;;;7.15;2.75;;;31.00;47.30;;;;;;5034833;28;20037;-78
2023/08/03 11:31:53;;;;;;;6.07;3.40;;;31.20;47.20;;;;;;5034932;28;20028;-77
2023/08/03 11:34:18;;;;;;;8.07;2.60;;;31.20;47.10;;;;;;5034923;28;20048;-77
2023/08/03 11:36:48;;;;;;;4.10;2.85;;;31.30;47.30;;;;;;5034802;28;20036;-77
2023/08/03 11:39:14;;;;;;;6.68;2.88;;;31.20;47.20;;;;;;5033595;28;20409;-78
2023/08/03 11:41:41;;;;;;;4.22;2.60;;;31.30;47.10;;;;;;5034976;28;20052;-77
2023/08/03 11:44:07;;;;;;;3.10;2.20;;;31.40;47.70;;;;;;5034743;28;20029;-78
2023/08/03 11:46:33;;;;;;;4.43;2.80;;;31.40;46.20;;;;;;5034818;28;20104;-78
2023/08/03 11:49:00;;;;;;;4.55;2.28;;;31.40;45.80;;;;;;5034825;28;20037;-79
2023/08/03 11:51:35;;;;;;;4.70;2.72;;;31.40;45.90;;;;;;5034967;28;20030;-77
2023/08/03 11:54:03;;;;;;;8.77;2.50;;;31.40;47.20;;;;;;5034813;28;20028;-77
2023/08/03 11:56:29;;;;;;;7.88;2.83;;;31.30;45.90;;;;;;5034577;28;20048;-77
2023/08/03 11:58:57;;;;;;;5.10;2.78;;;31.30;45.90;;;;;;5033030;28;20029;-78
2023/08/03 12:01:26;;;;;;;5.00;2.60;;;31.30;45.60;;;;;;5034644;28;20028;-77
2023/08/03 12:04:05;;;;;;;7.22;2.53;;;31.20;45.80;;;;;;5034567;28;20029;-77
2023/08/03 12:07:01;;;;;;;10.23;3.47;;;31.30;46.70;;;;;;5034497;28;20029;-78
2023/08/03 12:09:28;;;;;;;4.47;2.65;;;31.30;46.40;;;;;;5033894;28;20569;-78
2023/08/03 12:12:05;;;;;;;4.35;2.70;;;31.20;45.80;;;;;;5033056;28;20073;-78
2023/08/03 12:14:30;;;;;;;5.13;3.08;;;31.20;46.40;;;;;;5034359;28;20029;-77
2023/08/03 12:16:56;;;;;;;4.13;2.88;;;31.00;47.30;;;;;;5034162;28;20056;-78
2023/08/03 12:19:22;;;;;;;5.90;3.13;;;31.00;47.60;;;;;;5034615;28;20026;-78
2023/08/03 12:21:48;;;;;;;4.18;2.30;;;31.00;47.40;;;;;;5034761;28;20116;-78
2023/08/03 12:24:14;;;;;;;6.22;3.05;;;30.80;47.50;;;;;;5034357;28;20398;-77
2023/08/03 12:26:40;;;;;;;4.57;2.97;;;30.40;47.60;;;;;;5034395;28;20021;-78
2023/08/03 12:29:06;;;;;;;7.13;3.00;;;30.30;47.80;;;;;;5034526;28;20044;-79
2023/08/03 12:31:32;;;;;;;5.80;3.33;;;30.40;47.70;;;;;;5031328;28;20394;-78
2023/08/03 12:33:58;;;;;;;3.83;3.30;;;30.50;47.40;;;;;;5031407;28;20497;-78
2023/08/03 12:36:27;;;;;;;4.70;3.05;;;30.60;47.30;;;;;;5031218;28;20034;-77
2023/08/03 12:38:53;;;;;;;5.10;2.95;;;30.70;46.80;;;;;;5029858;28;20051;-79
2023/08/03 12:41:19;;;;;;;3.55;2.55;;;30.90;44.30;;;;;;5029625;28;20033;-78
2023/08/03 12:43:49;;;;;;;6.38;3.33;;;30.90;44.80;;;;;;5029771;28;20029;-79
2023/08/03 12:46:15;;;;;;;5.35;2.70;;;30.90;44.30;;;;;;5030868;28;20524;-78